Cowie, United Kingdom
Current Conditions -  °F | °C
As of 10:50 AM on Monday 20 Oct 2014 (Local Time) from EGPH Reporting Station
Rain Showers Rain Showers  
Wind Chill: 52°   Ceiling: 4500
Heat Index: 52°   Visibility: 3mi
Dew Point: 50°   Wind: 16mph
Humidity: 94%   Direction: 240°WSW
Pressure: 29.74"   Gusts: NA
Location:  56.07°N, 3.87°W
Report Text: EGPH 200950Z 24014KT 5000 VCSH FEW013 SCT031 BKN045 11/10 Q1007
Loading
Personal Weather Stations






























Interactive Weather Map
Tropical Storm Tracking
New forecast layout! Learn more

10-Day Weather Forecast

Advertisements
Track Severe Weather on mobile